60.0°F
Current conditions from King Hill
Updated every 5 minutes
 
  Monday September 22, 2014

Station Historical Data
Daily Summary for November 28, 2011 Units:  Both    English   Metric
« Previous Day
Next Day »
Daily Weekly Monthly Yearly Custom
  High: Low: Average:
Temperature: 54.9 °F /  12.7 °C 41.1 °F /  5.1 °C 49.6 °F /  9.8 °C
Dew Point: 48.3 °F /  9.1 °C 37.8 °F /  3.2 °C 43.6 °F /  6.4 °C
Humidity: 92% 68% 80%
Wind Speed: 13.0mph /  20.9km/h - 5.2mph /  8.4km/h
Wind Gust: 27.0mph /  43.5km/h - -
Wind- - South
Pressure: 30.09 in /  1018.8 hPa 29.85 in /  1010.7 hPa -
Precipitation: 0.04 in /  1 mm    
Historical Graphs
 
 
Tabular Data for November 28, 2011
Time Temperature Dew Point Pressure Wind Wind Speed Wind Gust Humidity Daily Rainfall
00:04 54.8 °F /  12.7 °C 44.5 °F /  6.9 °C 29.88in /  1011.7hPa SSW 11.0mph /  17.7km/h 20.0mph /  32.2km/h 68% 0.00in /  0mm
00:09 54.8 °F /  12.7 °C 44.5 °F /  6.9 °C 29.88in /  1011.7hPa SSW 11.0mph /  17.7km/h 20.0mph /  32.2km/h 68% 0.00in /  0mm
00:14 54.8 °F /  12.7 °C 44.5 °F /  6.9 °C 29.88in /  1011.7hPa SW 9.0mph /  14.5km/h 20.0mph /  32.2km/h 68% 0.00in /  0mm
00:19 54.8 °F /  12.7 °C 44.8 °F /  7.1 °C 29.89in /  1012.1hPa SSW 7.0mph /  11.3km/h 27.0mph /  43.5km/h 69% 0.00in /  0mm
00:25 54.8 °F /  12.7 °C 44.8 °F /  7.1 °C 29.88in /  1011.7hPa SSW 11.0mph /  17.7km/h 27.0mph /  43.5km/h 69% 0.00in /  0mm
00:29 54.6 °F /  12.6 °C 44.6 °F /  7 °C 29.88in /  1011.7hPa SSW 7.0mph /  11.3km/h 20.0mph /  32.2km/h 69% 0.00in /  0mm
00:34 54.6 °F /  12.6 °C 44.6 °F /  7 °C 29.88in /  1011.7hPa SSW 8.0mph /  12.9km/h 21.0mph /  33.8km/h 69% 0.00in /  0mm
00:39 54.6 °F /  12.6 °C 45.0 °F /  7.2 °C 29.88in /  1011.7hPa SSW 12.0mph /  19.3km/h 21.0mph /  33.8km/h 70% 0.00in /  0mm
00:44 54.6 °F /  12.6 °C 45.0 °F /  7.2 °C 29.88in /  1011.7hPa SSW 9.0mph /  14.5km/h 21.0mph /  33.8km/h 70% 0.00in /  0mm
00:49 54.6 °F /  12.6 °C 45.0 °F /  7.2 °C 29.87in /  1011.4hPa SSW 11.0mph /  17.7km/h 22.0mph /  35.4km/h 70% 0.00in /  0mm
00:54 54.6 °F /  12.6 °C 45.0 °F /  7.2 °C 29.87in /  1011.4hPa SSW 10.0mph /  16.1km/h 22.0mph /  35.4km/h 70% 0.00in /  0mm
00:59 54.5 °F /  12.5 °C 45.3 °F /  7.4 °C 29.88in /  1011.7hPa SSW 11.0mph /  17.7km/h 26.0mph /  41.8km/h 71% 0.00in /  0mm
01:04 54.5 °F /  12.5 °C 45.3 °F /  7.4 °C 29.87in /  1011.4hPa SSW 11.0mph /  17.7km/h 26.0mph /  41.8km/h 71% 0.00in /  0mm
01:09 54.5 °F /  12.5 °C 45.3 °F /  7.4 °C 29.87in /  1011.4hPa SSW 13.0mph /  20.9km/h 24.0mph /  38.6km/h 71% 0.00in /  0mm
01:14 54.5 °F /  12.5 °C 45.3 °F /  7.4 °C 29.87in /  1011.4hPa SSW 9.0mph /  14.5km/h 24.0mph /  38.6km/h 71% 0.00in /  0mm
01:19 54.4 °F /  12.4 °C 45.6 °F /  7.6 °C 29.86in /  1011.1hPa SSW 10.0mph /  16.1km/h 21.0mph /  33.8km/h 72% 0.00in /  0mm
01:25 54.5 °F /  12.5 °C 45.7 °F /  7.6 °C 29.87in /  1011.4hPa SSW 10.0mph /  16.1km/h 21.0mph /  33.8km/h 72% 0.00in /  0mm
01:29 54.4 °F /  12.4 °C 45.6 °F /  7.6 °C 29.87in /  1011.4hPa SSW 13.0mph /  20.9km/h 21.0mph /  33.8km/h 72% 0.00in /  0mm
01:34 54.5 °F /  12.5 °C 45.7 °F /  7.6 °C 29.87in /  1011.4hPa SSW 8.0mph /  12.9km/h 21.0mph /  33.8km/h 72% 0.00in /  0mm
01:39 54.4 °F /  12.4 °C 45.6 °F /  7.6 °C 29.86in /  1011.1hPa SSW 10.0mph /  16.1km/h 20.0mph /  32.2km/h 72% 0.00in /  0mm
01:44 54.5 °F /  12.5 °C 45.7 °F /  7.6 °C 29.87in /  1011.4hPa SSW 12.0mph /  19.3km/h 25.0mph /  40.2km/h 72% 0.00in /  0mm
01:49 54.5 °F /  12.5 °C 45.7 °F /  7.6 °C 29.87in /  1011.4hPa SSW 9.0mph /  14.5km/h 25.0mph /  40.2km/h 72% 0.00in /  0mm
01:54 54.4 °F /  12.4 °C 45.9 °F /  7.7 °C 29.87in /  1011.4hPa SSW 8.0mph /  12.9km/h 18.0mph /  29km/h 73% 0.00in /  0mm
01:59 54.4 °F /  12.4 °C 45.9 °F /  7.7 °C 29.87in /  1011.4hPa SSW 7.0mph /  11.3km/h 20.0mph /  32.2km/h 73% 0.00in /  0mm
02:04 54.3 °F /  12.4 °C 45.8 °F /  7.7 °C 29.87in /  1011.4hPa SW 8.0mph /  12.9km/h 20.0mph /  32.2km/h 73% 0.00in /  0mm
02:09 54.4 °F /  12.4 °C 45.9 °F /  7.7 °C 29.87in /  1011.4hPa SSW 11.0mph /  17.7km/h 19.0mph /  30.6km/h 73% 0.00in /  0mm
02:14 54.4 °F /  12.4 °C 45.9 °F /  7.7 °C 29.87in /  1011.4hPa SSW 8.0mph /  12.9km/h 19.0mph /  30.6km/h 73% 0.00in /  0mm
02:19 54.4 °F /  12.4 °C 45.9 °F /  7.7 °C 29.87in /  1011.4hPa SSW 7.0mph /  11.3km/h 17.0mph /  27.4km/h 73% 0.00in /  0mm
02:24 54.3 °F /  12.4 °C 45.8 °F /  7.7 °C 29.87in /  1011.4hPa SW 8.0mph /  12.9km/h 18.0mph /  29km/h 73% 0.00in /  0mm
02:30 54.3 °F /  12.4 °C 45.8 °F /  7.7 °C 29.87in /  1011.4hPa SSW 9.0mph /  14.5km/h 18.0mph /  29km/h 73% 0.00in /  0mm
02:34 54.4 °F /  12.4 °C 46.3 °F /  7.9 °C 29.87in /  1011.4hPa SSW 9.0mph /  14.5km/h 19.0mph /  30.6km/h 74% 0.00in /  0mm
02:39 54.5 °F /  12.5 °C 46.4 °F /  8 °C 29.87in /  1011.4hPa SSW 8.0mph /  12.9km/h 21.0mph /  33.8km/h 74% 0.00in /  0mm
02:44 54.5 °F /  12.5 °C 46.4 °F /  8 °C 29.87in /  1011.4hPa SW 10.0mph /  16.1km/h 21.0mph /  33.8km/h 74% 0.00in /  0mm
02:49 54.6 °F /  12.6 °C 46.5 °F /  8.1 °C 29.87in /  1011.4hPa SW 8.0mph /  12.9km/h 20.0mph /  32.2km/h 74% 0.00in /  0mm
02:54 54.5 °F /  12.5 °C 46.4 °F /  8 °C 29.87in /  1011.4hPa SSW 7.0mph /  11.3km/h 18.0mph /  29km/h 74% 0.00in /  0mm
02:59 54.6 °F /  12.6 °C 46.5 °F /  8.1 °C 29.87in /  1011.4hPa SSW 11.0mph /  17.7km/h 17.0mph /  27.4km/h 74% 0.00in /  0mm
03:04 54.7 °F /  12.6 °C 46.6 °F /  8.1 °C 29.87in /  1011.4hPa SSW 10.0mph /  16.1km/h 20.0mph /  32.2km/h 74% 0.00in /  0mm
03:09 54.6 °F /  12.6 °C 46.5 °F /  8.1 °C 29.86in /  1011.1hPa SSW 8.0mph /  12.9km/h 20.0mph /  32.2km/h 74% 0.00in /  0mm
03:14 54.6 °F /  12.6 °C 46.5 °F /  8.1 °C 29.86in /  1011.1hPa SSW 11.0mph /  17.7km/h 19.0mph /  30.6km/h 74% 0.00in /  0mm
03:19 54.7 °F /  12.6 °C 46.6 °F /  8.1 °C 29.86in /  1011.1hPa SSW 12.0mph /  19.3km/h 22.0mph /  35.4km/h 74% 0.00in /  0mm
03:24 54.7 °F /  12.6 °C 46.6 °F /  8.1 °C 29.85in /  1010.7hPa South 5.0mph /  8km/h 22.0mph /  35.4km/h 74% 0.00in /  0mm
03:30 54.6 °F /  12.6 °C 46.5 °F /  8.1 °C 29.86in /  1011.1hPa SSW 8.0mph /  12.9km/h 20.0mph /  32.2km/h 74% 0.00in /  0mm
03:34 54.6 °F /  12.6 °C 46.5 °F /  8.1 °C 29.86in /  1011.1hPa SSW 8.0mph /  12.9km/h 17.0mph /  27.4km/h 74% 0.00in /  0mm
03:39 54.6 °F /  12.6 °C 46.5 °F /  8.1 °C 29.87in /  1011.4hPa SSW 8.0mph /  12.9km/h 17.0mph /  27.4km/h 74% 0.00in /  0mm
03:45 54.6 °F /  12.6 °C 46.5 °F /  8.1 °C 29.88in /  1011.7hPa SSW 9.0mph /  14.5km/h 18.0mph /  29km/h 74% 0.00in /  0mm
03:49 54.6 °F /  12.6 °C 46.8 °F /  8.2 °C 29.88in /  1011.7hPa SSW 9.0mph /  14.5km/h 19.0mph /  30.6km/h 75% 0.00in /  0mm
03:55 54.6 °F /  12.6 °C 46.8 °F /  8.2 °C 29.88in /  1011.7hPa SSW 9.0mph /  14.5km/h 19.0mph /  30.6km/h 75% 0.00in /  0mm
03:59 54.7 °F /  12.6 °C 46.6 °F /  8.1 °C 29.88in /  1011.7hPa SSW 9.0mph /  14.5km/h 18.0mph /  29km/h 74% 0.00in /  0mm
04:05 54.7 °F /  12.6 °C 46.6 °F /  8.1 °C 29.88in /  1011.7hPa SSW 9.0mph /  14.5km/h 19.0mph /  30.6km/h 74% 0.00in /  0mm
04:09 54.7 °F /  12.6 °C 46.6 °F /  8.1 °C 29.87in /  1011.4hPa SSW 6.0mph /  9.7km/h 19.0mph /  30.6km/h 74% 0.00in /  0mm
04:14 54.7 °F /  12.6 °C 46.6 °F /  8.1 °C 29.87in /  1011.4hPa SSW 8.0mph /  12.9km/h 20.0mph /  32.2km/h 74% 0.00in /  0mm
04:19 54.7 °F /  12.6 °C 46.9 °F /  8.3 °C 29.87in /  1011.4hPa SSW 10.0mph /  16.1km/h 20.0mph /  32.2km/h 75% 0.00in /  0mm
04:25 54.6 °F /  12.6 °C 46.8 °F /  8.2 °C 29.87in /  1011.4hPa SSW 5.0mph /  8km/h 17.0mph /  27.4km/h 75% 0.00in /  0mm
04:29 54.5 °F /  12.5 °C 46.7 °F /  8.2 °C 29.87in /  1011.4hPa SSW 6.0mph /  9.7km/h 15.0mph /  24.1km/h 75% 0.00in /  0mm
04:34 54.4 °F /  12.4 °C 46.6 °F /  8.1 °C 29.87in /  1011.4hPa SSW 10.0mph /  16.1km/h 15.0mph /  24.1km/h 75% 0.00in /  0mm
04:39 54.5 °F /  12.5 °C 46.7 °F /  8.2 °C 29.88in /  1011.7hPa SSW 9.0mph /  14.5km/h 19.0mph /  30.6km/h 75% 0.00in /  0mm
04:44 54.5 °F /  12.5 °C 46.7 °F /  8.2 °C 29.87in /  1011.4hPa SSW 9.0mph /  14.5km/h 22.0mph /  35.4km/h 75% 0.00in /  0mm
04:49 54.5 °F /  12.5 °C 46.7 °F /  8.2 °C 29.87in /  1011.4hPa SSW 9.0mph /  14.5km/h 22.0mph /  35.4km/h 75% 0.00in /  0mm
04:54 54.5 °F /  12.5 °C 46.7 °F /  8.2 °C 29.87in /  1011.4hPa SSW 11.0mph /  17.7km/h 21.0mph /  33.8km/h 75% 0.00in /  0mm
04:59 54.6 °F /  12.6 °C 46.8 °F /  8.2 °C 29.88in /  1011.7hPa SSW 10.0mph /  16.1km/h 21.0mph /  33.8km/h 75% 0.00in /  0mm
05:04 54.6 °F /  12.6 °C 46.8 °F /  8.2 °C 29.88in /  1011.7hPa SSW 10.0mph /  16.1km/h 18.0mph /  29km/h 75% 0.00in /  0mm
05:09 54.6 °F /  12.6 °C 46.8 °F /  8.2 °C 29.88in /  1011.7hPa SSW 10.0mph /  16.1km/h 18.0mph /  29km/h 75% 0.00in /  0mm
05:14 54.6 °F /  12.6 °C 46.8 °F /  8.2 °C 29.88in /  1011.7hPa SSW 7.0mph /  11.3km/h 20.0mph /  32.2km/h 75% 0.00in /  0mm
05:19 54.5 °F /  12.5 °C 46.7 °F /  8.2 °C 29.88in /  1011.7hPa SSW 7.0mph /  11.3km/h 20.0mph /  32.2km/h 75% 0.00in /  0mm
05:25 54.5 °F /  12.5 °C 47.1 °F /  8.4 °C 29.89in /  1012.1hPa SSW 9.0mph /  14.5km/h 16.0mph /  25.7km/h 76% 0.00in /  0mm
05:34 54.6 °F /  12.6 °C 47.2 °F /  8.4 °C 29.89in /  1012.1hPa SSW 8.0mph /  12.9km/h 19.0mph /  30.6km/h 76% 0.00in /  0mm
05:39 54.6 °F /  12.6 °C 46.8 °F /  8.2 °C 29.89in /  1012.1hPa SW 11.0mph /  17.7km/h 20.0mph /  32.2km/h 75% 0.00in /  0mm
05:44 54.6 °F /  12.6 °C 46.8 °F /  8.2 °C 29.88in /  1011.7hPa SSW 7.0mph /  11.3km/h 20.0mph /  32.2km/h 75% 0.00in /  0mm
05:49 54.5 °F /  12.5 °C 47.1 °F /  8.4 °C 29.89in /  1012.1hPa SSW 7.0mph /  11.3km/h 17.0mph /  27.4km/h 76% 0.00in /  0mm
05:54 54.5 °F /  12.5 °C 47.1 °F /  8.4 °C 29.88in /  1011.7hPa SSW 8.0mph /  12.9km/h 17.0mph /  27.4km/h 76% 0.00in /  0mm
05:59 54.5 °F /  12.5 °C 47.1 °F /  8.4 °C 29.88in /  1011.7hPa SSW 5.0mph /  8km/h 17.0mph /  27.4km/h 76% 0.00in /  0mm
06:04 54.4 °F /  12.4 °C 47.0 °F /  8.3 °C 29.87in /  1011.4hPa SSW 7.0mph /  11.3km/h 17.0mph /  27.4km/h 76% 0.00in /  0mm
06:09 54.3 °F /  12.4 °C 46.9 °F /  8.3 °C 29.89in /  1012.1hPa SSW 6.0mph /  9.7km/h 17.0mph /  27.4km/h 76% 0.00in /  0mm
06:14 54.3 °F /  12.4 °C 46.9 °F /  8.3 °C 29.88in /  1011.7hPa SSW 5.0mph /  8km/h 13.0mph /  20.9km/h 76% 0.00in /  0mm
06:19 54.3 °F /  12.4 °C 46.9 °F /  8.3 °C 29.90in /  1012.4hPa SSW 9.0mph /  14.5km/h 18.0mph /  29km/h 76% 0.00in /  0mm
06:25 54.4 °F /  12.4 °C 47.0 °F /  8.3 °C 29.91in /  1012.8hPa SW 7.0mph /  11.3km/h 18.0mph /  29km/h 76% 0.00in /  0mm
06:29 54.4 °F /  12.4 °C 47.0 °F /  8.3 °C 29.91in /  1012.8hPa SW 6.0mph /  9.7km/h 14.0mph /  22.5km/h 76% 0.00in /  0mm
06:34 54.5 °F /  12.5 °C 47.1 °F /  8.4 °C 29.90in /  1012.4hPa SW 7.0mph /  11.3km/h 15.0mph /  24.1km/h 76% 0.00in /  0mm
06:39 54.5 °F /  12.5 °C 47.1 °F /  8.4 °C 29.90in /  1012.4hPa SSW 7.0mph /  11.3km/h 15.0mph /  24.1km/h 76% 0.00in /  0mm
06:44 54.5 °F /  12.5 °C 47.1 °F /  8.4 °C 29.90in /  1012.4hPa SSW 6.0mph /  9.7km/h 13.0mph /  20.9km/h 76% 0.00in /  0mm
06:49 54.6 °F /  12.6 °C 47.2 °F /  8.4 °C 29.90in /  1012.4hPa SSW 9.0mph /  14.5km/h 18.0mph /  29km/h 76% 0.00in /  0mm
06:54 54.6 °F /  12.6 °C 47.2 °F /  8.4 °C 29.91in /  1012.8hPa SW 9.0mph /  14.5km/h 18.0mph /  29km/h 76% 0.00in /  0mm
06:59 54.6 °F /  12.6 °C 47.2 °F /  8.4 °C 29.91in /  1012.8hPa SSW 7.0mph /  11.3km/h 16.0mph /  25.7km/h 76% 0.00in /  0mm
07:04 54.7 °F /  12.6 °C 46.9 °F /  8.3 °C 29.91in /  1012.8hPa SW 6.0mph /  9.7km/h 16.0mph /  25.7km/h 75% 0.00in /  0mm
07:09 54.6 °F /  12.6 °C 47.2 °F /  8.4 °C 29.91in /  1012.8hPa SSW 8.0mph /  12.9km/h 16.0mph /  25.7km/h 76% 0.00in /  0mm
07:14 54.6 °F /  12.6 °C 47.2 °F /  8.4 °C 29.92in /  1013.1hPa SSW 8.0mph /  12.9km/h 15.0mph /  24.1km/h 76% 0.00in /  0mm
07:19 54.7 °F /  12.6 °C 46.9 °F /  8.3 °C 29.92in /  1013.1hPa SSW 8.0mph /  12.9km/h 17.0mph /  27.4km/h 75% 0.00in /  0mm
07:24 54.7 °F /  12.6 °C 46.9 °F /  8.3 °C 29.92in /  1013.1hPa SW 8.0mph /  12.9km/h 17.0mph /  27.4km/h 75% 0.00in /  0mm
07:29 54.8 °F /  12.7 °C 47.0 °F /  8.3 °C 29.92in /  1013.1hPa SW 8.0mph /  12.9km/h 14.0mph /  22.5km/h 75% 0.00in /  0mm
07:34 54.8 °F /  12.7 °C 47.0 °F /  8.3 °C 29.92in /  1013.1hPa SW 8.0mph /  12.9km/h 14.0mph /  22.5km/h 75% 0.00in /  0mm
07:39 54.9 °F /  12.7 °C 47.1 °F /  8.4 °C 29.92in /  1013.1hPa SSW 8.0mph /  12.9km/h 15.0mph /  24.1km/h 75% 0.00in /  0mm
07:44 54.8 °F /  12.7 °C 47.0 °F /  8.3 °C 29.93in /  1013.4hPa SSW 6.0mph /  9.7km/h 15.0mph /  24.1km/h 75% 0.00in /  0mm
07:49 54.8 °F /  12.7 °C 47.0 °F /  8.3 °C 29.92in /  1013.1hPa SW 8.0mph /  12.9km/h 14.0mph /  22.5km/h 75% 0.00in /  0mm
07:54 54.9 °F /  12.7 °C 47.1 °F /  8.4 °C 29.93in /  1013.4hPa SSW 5.0mph /  8km/h 14.0mph /  22.5km/h 75% 0.00in /  0mm
07:59 54.9 °F /  12.7 °C 47.1 °F /  8.4 °C 29.93in /  1013.4hPa SSW 6.0mph /  9.7km/h 11.0mph /  17.7km/h 75% 0.00in /  0mm
08:04 54.8 °F /  12.7 °C 47.4 °F /  8.6 °C 29.93in /  1013.4hPa SW 5.0mph /  8km/h 17.0mph /  27.4km/h 76% 0.00in /  0mm
08:09 54.8 °F /  12.7 °C 47.4 °F /  8.6 °C 29.93in /  1013.4hPa SSW 6.0mph /  9.7km/h 17.0mph /  27.4km/h 76% 0.00in /  0mm
08:14 54.8 °F /  12.7 °C 47.7 °F /  8.7 °C 29.93in /  1013.4hPa SW 5.0mph /  8km/h 12.0mph /  19.3km/h 77% 0.00in /  0mm
08:19 54.6 °F /  12.6 °C 47.5 °F /  8.6 °C 29.94in /  1013.8hPa SW 4.0mph /  6.4km/h 12.0mph /  19.3km/h 77% 0.00in /  0mm
08:24 54.4 °F /  12.4 °C 47.7 °F /  8.7 °C 29.94in /  1013.8hPa WSW 1.0mph /  1.6km/h 9.0mph /  14.5km/h 78% 0.00in /  0mm
08:30 54.2 °F /  12.3 °C 47.5 °F /  8.6 °C 29.94in /  1013.8hPa SW 5.0mph /  8km/h 12.0mph /  19.3km/h 78% 0.00in /  0mm
08:39 54.3 °F /  12.4 °C 47.6 °F /  8.7 °C 29.93in /  1013.4hPa SW 5.0mph /  8km/h 10.0mph /  16.1km/h 78% 0.00in /  0mm
08:44 54.4 °F /  12.4 °C 47.7 °F /  8.7 °C 29.93in /  1013.4hPa WSW 3.0mph /  4.8km/h 10.0mph /  16.1km/h 78% 0.00in /  0mm
08:49 54.5 °F /  12.5 °C 47.4 °F /  8.6 °C 29.94in /  1013.8hPa WSW 5.0mph /  8km/h 9.0mph /  14.5km/h 77% 0.00in /  0mm
08:54 54.6 °F /  12.6 °C 47.5 °F /  8.6 °C 29.94in /  1013.8hPa SW 5.0mph /  8km/h 10.0mph /  16.1km/h 77% 0.00in /  0mm
08:59 54.6 °F /  12.6 °C 47.5 °F /  8.6 °C 29.94in /  1013.8hPa WSW 3.0mph /  4.8km/h 10.0mph /  16.1km/h 77% 0.00in /  0mm
09:04 54.5 °F /  12.5 °C 47.4 °F /  8.6 °C 29.95in /  1014.1hPa WSW 5.0mph /  8km/h 10.0mph /  16.1km/h 77% 0.00in /  0mm
09:09 54.4 °F /  12.4 °C 47.3 °F /  8.5 °C 29.95in /  1014.1hPa WSW 4.0mph /  6.4km/h 10.0mph /  16.1km/h 77% 0.00in /  0mm
09:14 54.3 °F /  12.4 °C 47.6 °F /  8.7 °C 29.95in /  1014.1hPa West 5.0mph /  8km/h 10.0mph /  16.1km/h 78% 0.00in /  0mm
09:19 54.3 °F /  12.4 °C 47.6 °F /  8.7 °C 29.96in /  1014.4hPa WSW 5.0mph /  8km/h 11.0mph /  17.7km/h 78% 0.00in /  0mm
09:24 54.2 °F /  12.3 °C 47.5 °F /  8.6 °C 29.96in /  1014.4hPa WSW 5.0mph /  8km/h 11.0mph /  17.7km/h 78% 0.00in /  0mm
09:29 54.2 °F /  12.3 °C 47.8 °F /  8.8 °C 29.96in /  1014.4hPa WSW 3.0mph /  4.8km/h 9.0mph /  14.5km/h 79% 0.00in /  0mm
09:34 54.0 °F /  12.2 °C 48.0 °F /  8.9 °C 29.97in /  1014.8hPa SW 2.0mph /  3.2km/h 9.0mph /  14.5km/h 80% 0.00in /  0mm
09:45 53.4 °F /  11.9 °C 47.7 °F /  8.7 °C 29.98in /  1015.1hPa West 4.0mph /  6.4km/h 7.0mph /  11.3km/h 81% 0.00in /  0mm
09:49 53.0 °F /  11.7 °C 48.0 °F /  8.9 °C 29.99in /  1015.5hPa West 5.0mph /  8km/h 11.0mph /  17.7km/h 83% 0.01in /  0.3mm
09:54 52.5 °F /  11.4 °C 47.8 °F /  8.8 °C 29.99in /  1015.5hPa WSW 4.0mph /  6.4km/h 11.0mph /  17.7km/h 84% 0.02in /  0.5mm
09:59 52.2 °F /  11.2 °C 47.8 °F /  8.8 °C 29.99in /  1015.5hPa SW 4.0mph /  6.4km/h 12.0mph /  19.3km/h 85% 0.03in /  0.8mm
10:04 52.0 °F /  11.1 °C 47.9 °F /  8.8 °C 29.99in /  1015.5hPa WSW 5.0mph /  8km/h 12.0mph /  19.3km/h 86% 0.03in /  0.8mm
10:09 51.9 °F /  11.1 °C 47.8 °F /  8.8 °C 29.99in /  1015.5hPa WSW 6.0mph /  9.7km/h 11.0mph /  17.7km/h 86% 0.03in /  0.8mm
10:14 51.9 °F /  11.1 °C 48.2 °F /  9 °C 29.99in /  1015.5hPa WSW 5.0mph /  8km/h 12.0mph /  19.3km/h 87% 0.03in /  0.8mm
10:19 51.9 °F /  11.1 °C 48.2 °F /  9 °C 30.00in /  1015.8hPa West 4.0mph /  6.4km/h 12.0mph /  19.3km/h 87% 0.03in /  0.8mm
10:24 51.9 °F /  11.1 °C 48.2 °F /  9 °C 30.00in /  1015.8hPa WSW 4.0mph /  6.4km/h 8.0mph /  12.9km/h 87% 0.04in /  1mm
10:29 51.8 °F /  11 °C 48.1 °F /  8.9 °C 30.00in /  1015.8hPa West 5.0mph /  8km/h 8.0mph /  12.9km/h 87% 0.04in /  1mm
10:34 51.8 °F /  11 °C 48.1 °F /  8.9 °C 30.00in /  1015.8hPa SW 2.0mph /  3.2km/h 8.0mph /  12.9km/h 87% 0.04in /  1mm
10:39 51.7 °F /  10.9 °C 48.3 °F /  9.1 °C 30.00in /  1015.8hPa Calm   6.0mph /  9.7km/h 88% 0.04in /  1mm
10:44 51.5 °F /  10.8 °C 48.1 °F /  8.9 °C 29.99in /  1015.5hPa SW 3.0mph /  4.8km/h 6.0mph /  9.7km/h 88% 0.04in /  1mm
10:49 51.5 °F /  10.8 °C 48.1 °F /  8.9 °C 29.99in /  1015.5hPa SSW 4.0mph /  6.4km/h 8.0mph /  12.9km/h 88% 0.04in /  1mm
10:54 51.4 °F /  10.8 °C 48.0 °F /  8.9 °C 29.98in /  1015.1hPa SW 4.0mph /  6.4km/h 8.0mph /  12.9km/h 88% 0.04in /  1mm
10:59 51.3 °F /  10.7 °C 47.9 °F /  8.8 °C 29.99in /  1015.5hPa WSW 5.0mph /  8km/h 9.0mph /  14.5km/h 88% 0.04in /  1mm
11:04 51.4 °F /  10.8 °C 47.7 °F /  8.7 °C 29.99in /  1015.5hPa West 4.0mph /  6.4km/h 10.0mph /  16.1km/h 87% 0.04in /  1mm
11:09 51.4 °F /  10.8 °C 47.7 °F /  8.7 °C 29.99in /  1015.5hPa SW 5.0mph /  8km/h 10.0mph /  16.1km/h 87% 0.04in /  1mm
11:14 51.3 °F /  10.7 °C 47.6 °F /  8.7 °C 29.99in /  1015.5hPa West 5.0mph /  8km/h 10.0mph /  16.1km/h 87% 0.04in /  1mm
11:19 51.3 °F /  10.7 °C 47.3 °F /  8.5 °C 29.99in /  1015.5hPa West 6.0mph /  9.7km/h 10.0mph /  16.1km/h 86% 0.04in /  1mm
11:24 51.3 °F /  10.7 °C 46.9 °F /  8.3 °C 29.99in /  1015.5hPa WNW 8.0mph /  12.9km/h 16.0mph /  25.7km/h 85% 0.04in /  1mm
11:29 51.3 °F /  10.7 °C 46.6 °F /  8.1 °C 29.99in /  1015.5hPa West 4.0mph /  6.4km/h 16.0mph /  25.7km/h 84% 0.04in /  1mm
11:34 51.3 °F /  10.7 °C 46.3 °F /  7.9 °C 29.99in /  1015.5hPa West 8.0mph /  12.9km/h 14.0mph /  22.5km/h 83% 0.04in /  1mm
11:39 51.3 °F /  10.7 °C 46.0 °F /  7.8 °C 29.99in /  1015.5hPa West 8.0mph /  12.9km/h 14.0mph /  22.5km/h 82% 0.04in /  1mm
11:44 51.3 °F /  10.7 °C 45.7 °F /  7.6 °C 30.00in /  1015.8hPa WSW 7.0mph /  11.3km/h 13.0mph /  20.9km/h 81% 0.04in /  1mm
11:49 51.4 °F /  10.8 °C 45.8 °F /  7.7 °C 29.99in /  1015.5hPa West 6.0mph /  9.7km/h 13.0mph /  20.9km/h 81% 0.04in /  1mm
11:54 51.4 °F /  10.8 °C 45.4 °F /  7.4 °C 29.99in /  1015.5hPa WNW 6.0mph /  9.7km/h 13.0mph /  20.9km/h 80% 0.04in /  1mm
11:59 51.3 °F /  10.7 °C 45.3 °F /  7.4 °C 29.99in /  1015.5hPa West 8.0mph /  12.9km/h 13.0mph /  20.9km/h 80% 0.04in /  1mm
12:04 51.3 °F /  10.7 °C 45.3 °F /  7.4 °C 29.99in /  1015.5hPa WSW 4.0mph /  6.4km/h 13.0mph /  20.9km/h 80% 0.04in /  1mm
12:09 51.3 °F /  10.7 °C 45.3 °F /  7.4 °C 29.99in /  1015.5hPa WSW 3.0mph /  4.8km/h 11.0mph /  17.7km/h 80% 0.04in /  1mm
12:14 51.3 °F /  10.7 °C 45.3 °F /  7.4 °C 29.99in /  1015.5hPa WSW 2.0mph /  3.2km/h 8.0mph /  12.9km/h 80% 0.04in /  1mm
12:19 51.3 °F /  10.7 °C 45.3 °F /  7.4 °C 29.99in /  1015.5hPa Calm   8.0mph /  12.9km/h 80% 0.04in /  1mm
12:24 51.3 °F /  10.7 °C 45.0 °F /  7.2 °C 29.99in /  1015.5hPa WSW 2.0mph /  3.2km/h 7.0mph /  11.3km/h 79% 0.04in /  1mm
12:29 51.4 °F /  10.8 °C 45.1 °F /  7.3 °C 29.99in /  1015.5hPa SW 1.0mph /  1.6km/h 6.0mph /  9.7km/h 79% 0.04in /  1mm
12:34 51.3 °F /  10.7 °C 45.0 °F /  7.2 °C 29.99in /  1015.5hPa Calm   4.0mph /  6.4km/h 79% 0.04in /  1mm
12:39 51.3 °F /  10.7 °C 45.0 °F /  7.2 °C 29.99in /  1015.5hPa NW 1.0mph /  1.6km/h 3.0mph /  4.8km/h 79% 0.04in /  1mm
12:44 51.2 °F /  10.7 °C 45.6 °F /  7.6 °C 29.99in /  1015.5hPa Calm   3.0mph /  4.8km/h 81% 0.04in /  1mm
12:49 51.2 °F /  10.7 °C 45.6 °F /  7.6 °C 30.00in /  1015.8hPa NW 1.0mph /  1.6km/h 3.0mph /  4.8km/h 81% 0.04in /  1mm
12:54 51.1 °F /  10.6 °C 45.2 °F /  7.3 °C 30.00in /  1015.8hPa WNW 3.0mph /  4.8km/h 8.0mph /  12.9km/h 80% 0.04in /  1mm
12:59 51.1 °F /  10.6 °C 44.8 °F /  7.1 °C 29.99in /  1015.5hPa WNW 3.0mph /  4.8km/h 8.0mph /  12.9km/h 79% 0.04in /  1mm
13:04 51.2 °F /  10.7 °C 44.9 °F /  7.2 °C 29.99in /  1015.5hPa WNW 4.0mph /  6.4km/h 7.0mph /  11.3km/h 79% 0.04in /  1mm
13:09 51.2 °F /  10.7 °C 44.9 °F /  7.2 °C 29.99in /  1015.5hPa WNW 5.0mph /  8km/h 9.0mph /  14.5km/h 79% 0.04in /  1mm
13:14 51.2 °F /  10.7 °C 44.6 °F /  7 °C 29.99in /  1015.5hPa WNW 5.0mph /  8km/h 9.0mph /  14.5km/h 78% 0.04in /  1mm
13:19 51.3 °F /  10.7 °C 44.3 °F /  6.8 °C 30.00in /  1015.8hPa NW 6.0mph /  9.7km/h 11.0mph /  17.7km/h 77% 0.04in /  1mm
13:25 51.4 °F /  10.8 °C 44.4 °F /  6.9 °C 30.00in /  1015.8hPa WNW 4.0mph /  6.4km/h 11.0mph /  17.7km/h 77% 0.04in /  1mm
13:34 51.9 °F /  11.1 °C 44.9 °F /  7.2 °C 30.00in /  1015.8hPa WNW 5.0mph /  8km/h 8.0mph /  12.9km/h 77% 0.04in /  1mm
13:39 52.0 °F /  11.1 °C 44.7 °F /  7.1 °C 30.00in /  1015.8hPa WNW 4.0mph /  6.4km/h 7.0mph /  11.3km/h 76% 0.04in /  1mm
13:44 52.2 °F /  11.2 °C 44.9 °F /  7.2 °C 30.00in /  1015.8hPa WNW 4.0mph /  6.4km/h 6.0mph /  9.7km/h 76% 0.04in /  1mm
13:49 52.3 °F /  11.3 °C 45.0 °F /  7.2 °C 30.00in /  1015.8hPa WNW 1.0mph /  1.6km/h 6.0mph /  9.7km/h 76% 0.04in /  1mm
13:54 52.5 °F /  11.4 °C 45.2 °F /  7.3 °C 30.00in /  1015.8hPa WNW 1.0mph /  1.6km/h 6.0mph /  9.7km/h 76% 0.04in /  1mm
13:59 52.9 °F /  11.6 °C 45.5 °F /  7.5 °C 30.00in /  1015.8hPa NNE 1.0mph /  1.6km/h 5.0mph /  8km/h 76% 0.04in /  1mm
14:04 53.0 °F /  11.7 °C 45.6 °F /  7.6 °C 30.00in /  1015.8hPa North 2.0mph /  3.2km/h 6.0mph /  9.7km/h 76% 0.04in /  1mm
14:09 52.3 °F /  11.3 °C 45.0 °F /  7.2 °C 30.00in /  1015.8hPa North 2.0mph /  3.2km/h 6.0mph /  9.7km/h 76% 0.04in /  1mm
14:14 52.3 °F /  11.3 °C 45.3 °F /  7.4 °C 30.00in /  1015.8hPa NNE 2.0mph /  3.2km/h 8.0mph /  12.9km/h 77% 0.04in /  1mm
14:20 52.5 °F /  11.4 °C 45.2 °F /  7.3 °C 30.00in /  1015.8hPa NNW 2.0mph /  3.2km/h 8.0mph /  12.9km/h 76% 0.04in /  1mm
14:29 52.3 °F /  11.3 °C 44.6 °F /  7 °C 30.00in /  1015.8hPa NNW 3.0mph /  4.8km/h 9.0mph /  14.5km/h 75% 0.04in /  1mm
14:34 52.0 °F /  11.1 °C 44.3 °F /  6.8 °C 30.00in /  1015.8hPa NNW 2.0mph /  3.2km/h 9.0mph /  14.5km/h 75% 0.04in /  1mm
14:39 51.5 °F /  10.8 °C 43.8 °F /  6.6 °C 30.00in /  1015.8hPa North 1.0mph /  1.6km/h 7.0mph /  11.3km/h 75% 0.04in /  1mm
14:44 51.0 °F /  10.6 °C 43.4 °F /  6.3 °C 30.01in /  1016.1hPa North 1.0mph /  1.6km/h 7.0mph /  11.3km/h 75% 0.04in /  1mm
14:49 50.8 °F /  10.4 °C 43.2 °F /  6.2 °C 30.01in /  1016.1hPa North 2.0mph /  3.2km/h 6.0mph /  9.7km/h 75% 0.04in /  1mm
14:54 50.2 °F /  10.1 °C 42.9 °F /  6.1 °C 30.01in /  1016.1hPa North 2.0mph /  3.2km/h 8.0mph /  12.9km/h 76% 0.04in /  1mm
14:59 50.0 °F /  10 °C 43.1 °F /  6.2 °C 30.01in /  1016.1hPa Calm   8.0mph /  12.9km/h 77% 0.04in /  1mm
15:04 49.7 °F /  9.8 °C 42.8 °F /  6 °C 30.01in /  1016.1hPa North 4.0mph /  6.4km/h 8.0mph /  12.9km/h 77% 0.04in /  1mm
15:09 49.5 °F /  9.7 °C 42.9 °F /  6.1 °C 30.02in /  1016.5hPa North 1.0mph /  1.6km/h 8.0mph /  12.9km/h 78% 0.04in /  1mm
15:14 49.2 °F /  9.6 °C 42.6 °F /  5.9 °C 30.01in /  1016.1hPa North 1.0mph /  1.6km/h 10.0mph /  16.1km/h 78% 0.04in /  1mm
15:19 48.8 °F /  9.3 °C 42.3 °F /  5.7 °C 30.01in /  1016.1hPa NNE 2.0mph /  3.2km/h 10.0mph /  16.1km/h 78% 0.04in /  1mm
15:24 48.4 °F /  9.1 °C 41.9 °F /  5.5 °C 30.02in /  1016.5hPa NNE 4.0mph /  6.4km/h 7.0mph /  11.3km/h 78% 0.04in /  1mm
15:29 47.9 °F /  8.8 °C 41.4 °F /  5.2 °C 30.02in /  1016.5hPa NNE 1.0mph /  1.6km/h 8.0mph /  12.9km/h 78% 0.04in /  1mm
15:34 47.5 °F /  8.6 °C 41.0 °F /  5 °C 30.03in /  1016.8hPa NNE 2.0mph /  3.2km/h 8.0mph /  12.9km/h 78% 0.04in /  1mm
15:39 47.2 °F /  8.4 °C 41.0 °F /  5 °C 30.03in /  1016.8hPa NE 1.0mph /  1.6km/h 5.0mph /  8km/h 79% 0.04in /  1mm
15:44 46.8 °F /  8.2 °C 40.6 °F /  4.8 °C 30.04in /  1017.2hPa Calm   5.0mph /  8km/h 79% 0.04in /  1mm
15:49 46.4 °F /  8 °C 40.2 °F /  4.6 °C 30.04in /  1017.2hPa NE 1.0mph /  1.6km/h 5.0mph /  8km/h 79% 0.04in /  1mm
15:54 46.0 °F /  7.8 °C 40.2 °F /  4.6 °C 30.05in /  1017.5hPa NE 3.0mph /  4.8km/h 5.0mph /  8km/h 80% 0.04in /  1mm
15:59 45.6 °F /  7.6 °C 39.8 °F /  4.3 °C 30.05in /  1017.5hPa Calm   5.0mph /  8km/h 80% 0.04in /  1mm
16:04 45.2 °F /  7.3 °C 39.7 °F /  4.3 °C 30.04in /  1017.2hPa Calm   4.0mph /  6.4km/h 81% 0.04in /  1mm
16:09 45.0 °F /  7.2 °C 39.8 °F /  4.3 °C 30.05in /  1017.5hPa NE 2.0mph /  3.2km/h 4.0mph /  6.4km/h 82% 0.04in /  1mm
16:14 44.7 °F /  7.1 °C 39.5 °F /  4.2 °C 30.05in /  1017.5hPa Calm   4.0mph /  6.4km/h 82% 0.04in /  1mm
16:19 44.4 °F /  6.9 °C 39.6 °F /  4.2 °C 30.05in /  1017.5hPa Calm   4.0mph /  6.4km/h 83% 0.04in /  1mm
16:24 44.2 °F /  6.8 °C 39.4 °F /  4.1 °C 30.05in /  1017.5hPa NE 1.0mph /  1.6km/h 4.0mph /  6.4km/h 83% 0.04in /  1mm
16:29 44.0 °F /  6.7 °C 39.5 °F /  4.2 °C 30.05in /  1017.5hPa NE 1.0mph /  1.6km/h 5.0mph /  8km/h 84% 0.04in /  1mm
16:35 43.9 °F /  6.6 °C 39.4 °F /  4.1 °C 30.05in /  1017.5hPa NE 3.0mph /  4.8km/h 8.0mph /  12.9km/h 84% 0.04in /  1mm
16:44 43.4 °F /  6.3 °C 39.2 °F /  4 °C 30.04in /  1017.2hPa ENE 2.0mph /  3.2km/h 9.0mph /  14.5km/h 85% 0.04in /  1mm
16:49 43.2 °F /  6.2 °C 39.0 °F /  3.9 °C 30.04in /  1017.2hPa NE 1.0mph /  1.6km/h 9.0mph /  14.5km/h 85% 0.04in /  1mm
16:54 43.0 °F /  6.1 °C 38.8 °F /  3.8 °C 30.04in /  1017.2hPa NE 1.0mph /  1.6km/h 7.0mph /  11.3km/h 85% 0.04in /  1mm
16:59 42.8 °F /  6 °C 38.9 °F /  3.8 °C 30.05in /  1017.5hPa NE 4.0mph /  6.4km/h 6.0mph /  9.7km/h 86% 0.04in /  1mm
17:04 42.7 °F /  5.9 °C 38.8 °F /  3.8 °C 30.05in /  1017.5hPa NE 1.0mph /  1.6km/h 6.0mph /  9.7km/h 86% 0.04in /  1mm
17:09 42.6 °F /  5.9 °C 38.7 °F /  3.7 °C 30.05in /  1017.5hPa Calm   4.0mph /  6.4km/h 86% 0.04in /  1mm
17:14 42.5 °F /  5.8 °C 38.6 °F /  3.7 °C 30.06in /  1017.8hPa NE 1.0mph /  1.6km/h 6.0mph /  9.7km/h 86% 0.04in /  1mm
17:19 42.5 °F /  5.8 °C 38.6 °F /  3.7 °C 30.06in /  1017.8hPa NE 1.0mph /  1.6km/h 6.0mph /  9.7km/h 86% 0.04in /  1mm
17:24 42.5 °F /  5.8 °C 38.6 °F /  3.7 °C 30.06in /  1017.8hPa NE 2.0mph /  3.2km/h 6.0mph /  9.7km/h 86% 0.04in /  1mm
17:29 42.5 °F /  5.8 °C 38.9 °F /  3.8 °C 30.06in /  1017.8hPa Calm   6.0mph /  9.7km/h 87% 0.04in /  1mm
17:34 42.5 °F /  5.8 °C 38.9 °F /  3.8 °C 30.07in /  1018.2hPa NE 2.0mph /  3.2km/h 6.0mph /  9.7km/h 87% 0.04in /  1mm
17:39 42.5 °F /  5.8 °C 38.9 °F /  3.8 °C 30.07in /  1018.2hPa NE 2.0mph /  3.2km/h 6.0mph /  9.7km/h 87% 0.04in /  1mm
17:44 42.5 °F /  5.8 °C 38.9 °F /  3.8 °C 30.07in /  1018.2hPa ENE 1.0mph /  1.6km/h 6.0mph /  9.7km/h 87% 0.04in /  1mm
17:49 42.4 °F /  5.8 °C 38.8 °F /  3.8 °C 30.07in /  1018.2hPa NNE 1.0mph /  1.6km/h 7.0mph /  11.3km/h 87% 0.04in /  1mm
17:54 42.3 °F /  5.7 °C 38.7 °F /  3.7 °C 30.08in /  1018.5hPa NNE 1.0mph /  1.6km/h 7.0mph /  11.3km/h 87% 0.04in /  1mm
17:59 42.2 °F /  5.7 °C 38.6 °F /  3.7 °C 30.08in /  1018.5hPa Calm   6.0mph /  9.7km/h 87% 0.04in /  1mm
18:04 42.1 °F /  5.6 °C 38.5 °F /  3.6 °C 30.08in /  1018.5hPa NNE 2.0mph /  3.2km/h 5.0mph /  8km/h 87% 0.04in /  1mm
18:09 42.0 °F /  5.6 °C 38.4 °F /  3.6 °C 30.08in /  1018.5hPa NE 1.0mph /  1.6km/h 5.0mph /  8km/h 87% 0.04in /  1mm
18:14 41.9 °F /  5.5 °C 38.3 °F /  3.5 °C 30.09in /  1018.8hPa Calm   5.0mph /  8km/h 87% 0.04in /  1mm
18:19 41.8 °F /  5.4 °C 38.2 °F /  3.4 °C 30.08in /  1018.5hPa NE 2.0mph /  3.2km/h 5.0mph /  8km/h 87% 0.04in /  1mm
18:24 41.8 °F /  5.4 °C 38.2 °F /  3.4 °C 30.08in /  1018.5hPa Calm   5.0mph /  8km/h 87% 0.04in /  1mm
18:29 41.8 °F /  5.4 °C 38.2 °F /  3.4 °C 30.08in /  1018.5hPa NE 1.0mph /  1.6km/h 4.0mph /  6.4km/h 87% 0.04in /  1mm
18:34 41.9 °F /  5.5 °C 38.6 °F /  3.7 °C 30.08in /  1018.5hPa NE 1.0mph /  1.6km/h 5.0mph /  8km/h 88% 0.04in /  1mm
18:39 41.9 °F /  5.5 °C 38.6 °F /  3.7 °C 30.08in /  1018.5hPa NE 2.0mph /  3.2km/h 5.0mph /  8km/h 88% 0.04in /  1mm
18:44 41.9 °F /  5.5 °C 38.6 °F /  3.7 °C 30.09in /  1018.8hPa NE 1.0mph /  1.6km/h 4.0mph /  6.4km/h 88% 0.04in /  1mm
18:49 41.9 °F /  5.5 °C 38.6 °F /  3.7 °C 30.08in /  1018.5hPa NE 1.0mph /  1.6km/h 5.0mph /  8km/h 88% 0.04in /  1mm
18:54 41.9 °F /  5.5 °C 38.6 °F /  3.7 °C 30.08in /  1018.5hPa NE 1.0mph /  1.6km/h 5.0mph /  8km/h 88% 0.04in /  1mm
18:59 41.8 °F /  5.4 °C 38.5 °F /  3.6 °C 30.08in /  1018.5hPa NE 1.0mph /  1.6km/h 5.0mph /  8km/h 88% 0.04in /  1mm
19:04 41.7 °F /  5.4 °C 39.5 °F /  4.2 °C 30.08in /  1018.5hPa NE 1.0mph /  1.6km/h 3.0mph /  4.8km/h 92% 0.04in /  1mm
19:09 41.7 °F /  5.4 °C 38.4 °F /  3.6 °C 30.08in /  1018.5hPa NE 3.0mph /  4.8km/h 4.0mph /  6.4km/h 88% 0.04in /  1mm
19:14 41.6 °F /  5.3 °C 38.0 °F /  3.3 °C 30.08in /  1018.5hPa Calm   4.0mph /  6.4km/h 87% 0.04in /  1mm
19:20 41.5 °F /  5.3 °C 38.2 °F /  3.4 °C 30.08in /  1018.5hPa NE 2.0mph /  3.2km/h 5.0mph /  8km/h 88% 0.04in /  1mm
19:29 41.5 °F /  5.3 °C 38.2 °F /  3.4 °C 30.08in /  1018.5hPa NE 1.0mph /  1.6km/h 4.0mph /  6.4km/h 88% 0.04in /  1mm
19:39 41.5 °F /  5.3 °C 38.2 °F /  3.4 °C 30.07in /  1018.2hPa Calm   6.0mph /  9.7km/h 88% 0.04in /  1mm
19:44 41.5 °F /  5.3 °C 38.2 °F /  3.4 °C 30.07in /  1018.2hPa Calm   4.0mph /  6.4km/h 88% 0.04in /  1mm
19:49 41.4 °F /  5.2 °C 38.1 °F /  3.4 °C 30.07in /  1018.2hPa NE 3.0mph /  4.8km/h 6.0mph /  9.7km/h 88% 0.04in /  1mm
19:54 41.4 °F /  5.2 °C 38.1 °F /  3.4 °C 30.07in /  1018.2hPa NE 2.0mph /  3.2km/h 6.0mph /  9.7km/h 88% 0.04in /  1mm
19:59 41.2 °F /  5.1 °C 37.9 °F /  3.3 °C 30.07in /  1018.2hPa NE 1.0mph /  1.6km/h 5.0mph /  8km/h 88% 0.04in /  1mm
20:04 41.1 °F /  5.1 °C 37.8 °F /  3.2 °C 30.07in /  1018.2hPa NE 1.0mph /  1.6km/h 3.0mph /  4.8km/h 88% 0.04in /  1mm
20:09 41.1 °F /  5.1 °C 37.8 °F /  3.2 °C 30.07in /  1018.2hPa NE 1.0mph /  1.6km/h 4.0mph /  6.4km/h 88% 0.04in /  1mm
20:14 41.1 °F /  5.1 °C 37.8 °F /  3.2 °C 30.07in /  1018.2hPa Calm   4.0mph /  6.4km/h 88% 0.04in /  1mm
20:19 41.1 °F /  5.1 °C 37.8 °F /  3.2 °C 30.07in /  1018.2hPa Calm   3.0mph /  4.8km/h 88% 0.04in /  1mm
20:24 41.1 °F /  5.1 °C 37.8 °F /  3.2 °C 30.08in /  1018.5hPa Calm   4.0mph /  6.4km/h 88% 0.04in /  1mm
20:30 41.2 °F /  5.1 °C 38.2 °F /  3.4 °C 30.07in /  1018.2hPa Calm   4.0mph /  6.4km/h 89% 0.04in /  1mm
20:40 41.3 °F /  5.2 °C 38.0 °F /  3.3 °C 30.08in /  1018.5hPa NE 1.0mph /  1.6km/h 5.0mph /  8km/h 88% 0.04in /  1mm
20:49 41.4 °F /  5.2 °C 38.1 °F /  3.4 °C 30.08in /  1018.5hPa Calm   6.0mph /  9.7km/h 88% 0.04in /  1mm
20:54 41.3 °F /  5.2 °C 38.0 °F /  3.3 °C 30.08in /  1018.5hPa NE 2.0mph /  3.2km/h 6.0mph /  9.7km/h 88% 0.04in /  1mm
20:59 41.3 °F /  5.2 °C 38.0 °F /  3.3 °C 30.08in /  1018.5hPa Calm   6.0mph /  9.7km/h 88% 0.04in /  1mm
21:04 41.4 °F /  5.2 °C 38.1 °F /  3.4 °C 30.08in /  1018.5hPa NE 1.0mph /  1.6km/h 3.0mph /  4.8km/h 88% 0.04in /  1mm
21:09 41.4 °F /  5.2 °C 38.1 °F /  3.4 °C 30.08in /  1018.5hPa NE 1.0mph /  1.6km/h 3.0mph /  4.8km/h 88% 0.04in /  1mm
21:14 41.5 °F /  5.3 °C 38.2 °F /  3.4 °C 30.08in /  1018.5hPa Calm   3.0mph /  4.8km/h 88% 0.04in /  1mm
21:19 41.5 °F /  5.3 °C 37.9 °F /  3.3 °C 30.08in /  1018.5hPa NE 2.0mph /  3.2km/h 5.0mph /  8km/h 87% 0.04in /  1mm
21:24 41.5 °F /  5.3 °C 37.9 °F /  3.3 °C 30.08in /  1018.5hPa Calm   5.0mph /  8km/h 87% 0.04in /  1mm
21:30 41.5 °F /  5.3 °C 37.9 °F /  3.3 °C 30.07in /  1018.2hPa NE 1.0mph /  1.6km/h 4.0mph /  6.4km/h 87% 0.04in /  1mm
21:39 41.5 °F /  5.3 °C 37.9 °F /  3.3 °C 30.07in /  1018.2hPa NE 2.0mph /  3.2km/h 5.0mph /  8km/h 87% 0.04in /  1mm
21:44 41.5 °F /  5.3 °C 37.9 °F /  3.3 °C 30.07in /  1018.2hPa NE 1.0mph /  1.6km/h 5.0mph /  8km/h 87% 0.04in /  1mm
21:49 41.5 °F /  5.3 °C 37.9 °F /  3.3 °C 30.07in /  1018.2hPa NE 1.0mph /  1.6km/h 5.0mph /  8km/h 87% 0.04in /  1mm
21:54 41.5 °F /  5.3 °C 37.9 °F /  3.3 °C 30.07in /  1018.2hPa Calm   3.0mph /  4.8km/h 87% 0.04in /  1mm
21:59 41.6 °F /  5.3 °C 38.0 °F /  3.3 °C 30.07in /  1018.2hPa Calm   3.0mph /  4.8km/h 87% 0.04in /  1mm
22:04 41.6 °F /  5.3 °C 38.0 °F /  3.3 °C 30.07in /  1018.2hPa Calm   3.0mph /  4.8km/h 87% 0.04in /  1mm
22:09 41.5 °F /  5.3 °C 37.9 °F /  3.3 °C 30.06in /  1017.8hPa NE 1.0mph /  1.6km/h 3.0mph /  4.8km/h 87% 0.04in /  1mm
22:14 41.5 °F /  5.3 °C 37.9 °F /  3.3 °C 30.06in /  1017.8hPa Calm   2.0mph /  3.2km/h 87% 0.04in /  1mm
22:19 41.5 °F /  5.3 °C 37.9 °F /  3.3 °C 30.06in /  1017.8hPa Calm   2.0mph /  3.2km/h 87% 0.04in /  1mm
22:24 41.5 °F /  5.3 °C 37.9 °F /  3.3 °C 30.06in /  1017.8hPa Calm   2.0mph /  3.2km/h 87% 0.04in /  1mm
22:29 41.5 °F /  5.3 °C 37.9 °F /  3.3 °C 30.07in /  1018.2hPa Calm   1.0mph /  1.6km/h 87% 0.04in /  1mm
22:34 41.6 °F /  5.3 °C 38.0 °F /  3.3 °C 30.07in /  1018.2hPa Calm   1.0mph /  1.6km/h 87% 0.04in /  1mm
22:39 41.6 °F /  5.3 °C 38.0 °F /  3.3 °C 30.07in /  1018.2hPa Calm   2.0mph /  3.2km/h 87% 0.04in /  1mm
22:44 41.7 °F /  5.4 °C 38.1 °F /  3.4 °C 30.07in /  1018.2hPa Calm   2.0mph /  3.2km/h 87% 0.04in /  1mm
22:49 41.8 °F /  5.4 °C 38.2 °F /  3.4 °C 30.06in /  1017.8hPa Calm   2.0mph /  3.2km/h 87% 0.04in /  1mm
22:54 41.9 °F /  5.5 °C 38.3 °F /  3.5 °C 30.06in /  1017.8hPa Calm   2.0mph /  3.2km/h 87% 0.04in /  1mm
22:59 42.0 °F /  5.6 °C 38.4 °F /  3.6 °C 30.06in /  1017.8hPa NE 1.0mph /  1.6km/h 4.0mph /  6.4km/h 87% 0.04in /  1mm
23:04 42.1 °F /  5.6 °C 38.5 °F /  3.6 °C 30.06in /  1017.8hPa Calm   4.0mph /  6.4km/h 87% 0.04in /  1mm
23:09 42.1 °F /  5.6 °C 38.5 °F /  3.6 °C 30.06in /  1017.8hPa NE 1.0mph /  1.6km/h 3.0mph /  4.8km/h 87% 0.04in /  1mm
23:14 42.2 °F /  5.7 °C 38.6 °F /  3.7 °C 30.06in /  1017.8hPa Calm   3.0mph /  4.8km/h 87% 0.04in /  1mm
23:19 42.2 °F /  5.7 °C 38.3 °F /  3.5 °C 30.06in /  1017.8hPa Calm   3.0mph /  4.8km/h 86% 0.04in /  1mm
23:25 42.3 °F /  5.7 °C 38.4 °F /  3.6 °C 30.05in /  1017.5hPa NE 2.0mph /  3.2km/h 5.0mph /  8km/h 86% 0.04in /  1mm
23:34 42.4 °F /  5.8 °C 38.5 °F /  3.6 °C 30.05in /  1017.5hPa Calm   4.0mph /  6.4km/h 86% 0.04in /  1mm
23:39 42.4 °F /  5.8 °C 38.5 °F /  3.6 °C 30.05in /  1017.5hPa Calm   1.0mph /  1.6km/h 86% 0.04in /  1mm
23:44 42.5 °F /  5.8 °C 38.9 °F /  3.8 °C 30.05in /  1017.5hPa Calm     87% 0.04in /  1mm
23:49 42.5 °F /  5.8 °C 38.9 °F /  3.8 °C 30.05in /  1017.5hPa Calm     87% 0.04in /  1mm
23:54 42.6 °F /  5.9 °C 39.0 °F /  3.9 °C 30.05in /  1017.5hPa Calm     87% 0.04in /  1mm
23:59 42.6 °F /  5.9 °C 39.0 °F /  3.9 °C 30.04in /  1017.2hPa Calm     87% 0.04in /  1mm
Westford Weather
Compliments of Weather Underground

 
 
Current Radar Loop:

Copyright © WestfordWeather.net 2007-2014. All rights reserved.